sensor_id;sensor_type;location;lat;lon;timestamp;temperature;humidity
32394;DHT22;18853;45.426;9.206;2023-02-28T00:01:31;12.30;46.30
32394;DHT22;18853;45.426;9.206;2023-02-28T00:03:57;12.20;46.30
32394;DHT22;18853;45.426;9.206;2023-02-28T00:06:23;12.20;46.20
32394;DHT22;18853;45.426;9.206;2023-02-28T00:08:49;12.20;45.80
32394;DHT22;18853;45.426;9.206;2023-02-28T00:11:15;12.20;45.60
32394;DHT22;18853;45.426;9.206;2023-02-28T00:13:43;12.20;45.40
32394;DHT22;18853;45.426;9.206;2023-02-28T00:16:21;12.20;45.10
32394;DHT22;18853;45.426;9.206;2023-02-28T00:18:47;12.20;44.80
32394;DHT22;18853;45.426;9.206;2023-02-28T00:21:14;12.10;45.10
32394;DHT22;18853;45.426;9.206;2023-02-28T00:23:40;12.10;44.10
32394;DHT22;18853;45.426;9.206;2023-02-28T00:26:05;12.10;43.60
32394;DHT22;18853;45.426;9.206;2023-02-28T00:28:31;12.10;43.40
32394;DHT22;18853;45.426;9.206;2023-02-28T00:30:57;12.10;43.40
32394;DHT22;18853;45.426;9.206;2023-02-28T00:33:23;12.00;43.30
32394;DHT22;18853;45.426;9.206;2023-02-28T00:35:48;12.00;43.40
32394;DHT22;18853;45.426;9.206;2023-02-28T00:38:14;12.00;43.50
32394;DHT22;18853;45.426;9.206;2023-02-28T00:40:40;12.00;43.70
32394;DHT22;18853;45.426;9.206;2023-02-28T00:43:06;12.00;43.80
32394;DHT22;18853;45.426;9.206;2023-02-28T00:45:32;12.10;43.80
32394;DHT22;18853;45.426;9.206;2023-02-28T00:47:57;12.00;44.50
32394;DHT22;18853;45.426;9.206;2023-02-28T00:50:23;12.00;43.70
32394;DHT22;18853;45.426;9.206;2023-02-28T00:52:49;12.00;43.50
32394;DHT22;18853;45.426;9.206;2023-02-28T00:55:14;11.90;43.30
32394;DHT22;18853;45.426;9.206;2023-02-28T00:57:40;11.90;43.20
32394;DHT22;18853;45.426;9.206;2023-02-28T01:00:07;11.90;43.20
32394;DHT22;18853;45.426;9.206;2023-02-28T01:02:33;11.90;43.10
32394;DHT22;18853;45.426;9.206;2023-02-28T01:04:58;12.00;43.20
32394;DHT22;18853;45.426;9.206;2023-02-28T01:07:24;11.90;43.30
32394;DHT22;18853;45.426;9.206;2023-02-28T01:09:50;11.90;43.30
32394;DHT22;18853;45.426;9.206;2023-02-28T01:12:17;11.90;43.20
32394;DHT22;18853;45.426;9.206;2023-02-28T01:14:42;12.00;43.20
32394;DHT22;18853;45.426;9.206;2023-02-28T01:17:08;11.90;43.10
32394;DHT22;18853;45.426;9.206;2023-02-28T01:19:34;11.90;43.00
32394;DHT22;18853;45.426;9.206;2023-02-28T01:22:04;11.90;43.00
32394;DHT22;18853;45.426;9.206;2023-02-28T01:24:30;11.90;42.90
32394;DHT22;18853;45.426;9.206;2023-02-28T01:26:56;11.90;43.10
32394;DHT22;18853;45.426;9.206;2023-02-28T01:29:22;11.90;42.90
32394;DHT22;18853;45.426;9.206;2023-02-28T01:31:48;11.90;42.90
32394;DHT22;18853;45.426;9.206;2023-02-28T01:34:13;11.80;42.70
32394;DHT22;18853;45.426;9.206;2023-02-28T01:36:39;11.90;42.60
32394;DHT22;18853;45.426;9.206;2023-02-28T01:39:04;11.80;42.80
32394;DHT22;18853;45.426;9.206;2023-02-28T01:41:32;11.80;43.00
32394;DHT22;18853;45.426;9.206;2023-02-28T01:44:03;11.80;43.00
32394;DHT22;18853;45.426;9.206;2023-02-28T01:46:33;11.70;43.10
32394;DHT22;18853;45.426;9.206;2023-02-28T01:49:17;11.70;43.30
32394;DHT22;18853;45.426;9.206;2023-02-28T01:51:52;11.60;43.00
32394;DHT22;18853;45.426;9.206;2023-02-28T01:54:26;11.60;43.40
32394;DHT22;18853;45.426;9.206;2023-02-28T01:57:14;11.50;43.30
32394;DHT22;18853;45.426;9.206;2023-02-28T01:59:45;11.50;43.00
32394;DHT22;18853;45.426;9.206;2023-02-28T02:02:12;11.40;42.70
32394;DHT22;18853;45.426;9.206;2023-02-28T02:05:08;11.40;42.70
32394;DHT22;18853;45.426;9.206;2023-02-28T02:07:39;11.40;42.70
32394;DHT22;18853;45.426;9.206;2023-02-28T02:40:13;11.20;44.00
32394;DHT22;18853;45.426;9.206;2023-02-28T02:48:13;11.10;44.60
32394;DHT22;18853;45.426;9.206;2023-02-28T02:50:45;11.10;44.40
32394;DHT22;18853;45.426;9.206;2023-02-28T02:53:12;11.10;44.40
32394;DHT22;18853;45.426;9.206;2023-02-28T02:55:42;11.10;44.30
32394;DHT22;18853;45.426;9.206;2023-02-28T02:58:14;11.10;44.10
32394;DHT22;18853;45.426;9.206;2023-02-28T03:00:44;11.20;44.10
32394;DHT22;18853;45.426;9.206;2023-02-28T03:03:12;11.20;43.80
32394;DHT22;18853;45.426;9.206;2023-02-28T03:05:50;11.20;43.90
32394;DHT22;18853;45.426;9.206;2023-02-28T03:08:16;11.10;43.80
32394;DHT22;18853;45.426;9.206;2023-02-28T03:10:44;11.00;44.00
32394;DHT22;18853;45.426;9.206;2023-02-28T03:27:30;11.00;44.30
32394;DHT22;18853;45.426;9.206;2023-02-28T03:30:22;11.00;44.50
32394;DHT22;18853;45.426;9.206;2023-02-28T03:33:00;10.90;44.30
32394;DHT22;18853;45.426;9.206;2023-02-28T03:35:34;11.00;44.10
32394;DHT22;18853;45.426;9.206;2023-02-28T03:38:15;10.90;44.20
32394;DHT22;18853;45.426;9.206;2023-02-28T03:40:47;11.00;44.40
32394;DHT22;18853;45.426;9.206;2023-02-28T03:43:19;10.90;44.30
32394;DHT22;18853;45.426;9.206;2023-02-28T03:45:48;10.90;44.10
32394;DHT22;18853;45.426;9.206;2023-02-28T03:48:24;10.80;44.30
32394;DHT22;18853;45.426;9.206;2023-02-28T03:50:55;10.80;44.10
32394;DHT22;18853;45.426;9.206;2023-02-28T03:53:34;10.80;44.40
32394;DHT22;18853;45.426;9.206;2023-02-28T03:56:20;10.80;44.60
32394;DHT22;18853;45.426;9.206;2023-02-28T03:59:14;10.90;44.50
32394;DHT22;18853;45.426;9.206;2023-02-28T04:01:45;10.90;44.20
32394;DHT22;18853;45.426;9.206;2023-02-28T04:04:13;10.90;44.30
32394;DHT22;18853;45.426;9.206;2023-02-28T04:06:39;10.80;44.10
32394;DHT22;18853;45.426;9.206;2023-02-28T04:09:08;10.90;44.20
32394;DHT22;18853;45.426;9.206;2023-02-28T04:14:11;11.00;44.30
32394;DHT22;18853;45.426;9.206;2023-02-28T04:16:39;11.00;44.20
32394;DHT22;18853;45.426;9.206;2023-02-28T04:19:06;10.90;44.10
32394;DHT22;18853;45.426;9.206;2023-02-28T04:21:37;10.90;44.50
32394;DHT22;18853;45.426;9.206;2023-02-28T04:24:08;10.90;43.90
32394;DHT22;18853;45.426;9.206;2023-02-28T04:26:36;10.80;44.10
32394;DHT22;18853;45.426;9.206;2023-02-28T04:29:05;10.90;44.20
32394;DHT22;18853;45.426;9.206;2023-02-28T04:31:33;10.90;44.10
32394;DHT22;18853;45.426;9.206;2023-02-28T04:33:58;10.90;44.00
32394;DHT22;18853;45.426;9.206;2023-02-28T04:36:24;10.80;44.00
32394;DHT22;18853;45.426;9.206;2023-02-28T04:38:50;10.90;44.20
32394;DHT22;18853;45.426;9.206;2023-02-28T04:41:16;10.90;44.00
32394;DHT22;18853;45.426;9.206;2023-02-28T04:43:42;10.90;44.10
32394;DHT22;18853;45.426;9.206;2023-02-28T04:46:08;10.90;43.90
32394;DHT22;18853;45.426;9.206;2023-02-28T04:48:37;10.90;43.90
32394;DHT22;18853;45.426;9.206;2023-02-28T04:51:08;10.90;44.40
32394;DHT22;18853;45.426;9.206;2023-02-28T04:53:36;10.90;44.30
32394;DHT22;18853;45.426;9.206;2023-02-28T04:56:02;11.00;44.30
32394;DHT22;18853;45.426;9.206;2023-02-28T04:58:28;11.00;44.00
32394;DHT22;18853;45.426;9.206;2023-02-28T05:01:02;11.10;43.90
32394;DHT22;18853;45.426;9.206;2023-02-28T05:03:27;11.10;43.60
32394;DHT22;18853;45.426;9.206;2023-02-28T05:05:53;11.10;43.40
32394;DHT22;18853;45.426;9.206;2023-02-28T05:08:18;11.00;43.10
32394;DHT22;18853;45.426;9.206;2023-02-28T05:10:44;11.00;43.00
32394;DHT22;18853;45.426;9.206;2023-02-28T05:13:12;10.90;43.20
32394;DHT22;18853;45.426;9.206;2023-02-28T05:15:37;11.00;43.30
32394;DHT22;18853;45.426;9.206;2023-02-28T05:18:03;11.00;43.30
32394;DHT22;18853;45.426;9.206;2023-02-28T05:20:29;11.10;43.30
32394;DHT22;18853;45.426;9.206;2023-02-28T05:22:54;11.20;43.30
32394;DHT22;18853;45.426;9.206;2023-02-28T05:25:21;11.20;43.10
32394;DHT22;18853;45.426;9.206;2023-02-28T05:27:48;11.10;43.10
32394;DHT22;18853;45.426;9.206;2023-02-28T05:30:14;11.00;42.90
32394;DHT22;18853;45.426;9.206;2023-02-28T05:32:41;11.00;43.10
32394;DHT22;18853;45.426;9.206;2023-02-28T05:35:12;11.00;43.00
32394;DHT22;18853;45.426;9.206;2023-02-28T05:37:38;10.90;43.00
32394;DHT22;18853;45.426;9.206;2023-02-28T05:40:06;10.90;43.30
32394;DHT22;18853;45.426;9.206;2023-02-28T05:42:32;10.90;43.20
32394;DHT22;18853;45.426;9.206;2023-02-28T05:44:58;10.80;43.70
32394;DHT22;18853;45.426;9.206;2023-02-28T05:47:24;10.80;43.30
32394;DHT22;18853;45.426;9.206;2023-02-28T05:49:50;10.80;43.50
32394;DHT22;18853;45.426;9.206;2023-02-28T05:52:15;10.80;43.30
32394;DHT22;18853;45.426;9.206;2023-02-28T05:54:41;10.80;43.10
32394;DHT22;18853;45.426;9.206;2023-02-28T05:57:07;10.80;43.40
32394;DHT22;18853;45.426;9.206;2023-02-28T05:59:33;10.90;43.30
32394;DHT22;18853;45.426;9.206;2023-02-28T06:01:58;11.00;43.10
32394;DHT22;18853;45.426;9.206;2023-02-28T06:04:24;11.00;43.00
32394;DHT22;18853;45.426;9.206;2023-02-28T06:06:50;10.90;43.20
32394;DHT22;18853;45.426;9.206;2023-02-28T06:09:17;11.00;43.50
32394;DHT22;18853;45.426;9.206;2023-02-28T06:11:43;11.10;43.50
32394;DHT22;18853;45.426;9.206;2023-02-28T06:14:19;11.20;43.10
32394;DHT22;18853;45.426;9.206;2023-02-28T06:16:45;11.20;43.00
32394;DHT22;18853;45.426;9.206;2023-02-28T06:19:11;11.20;43.10
32394;DHT22;18853;45.426;9.206;2023-02-28T06:21:36;11.10;43.00
32394;DHT22;18853;45.426;9.206;2023-02-28T06:24:03;11.10;43.30
32394;DHT22;18853;45.426;9.206;2023-02-28T06:26:28;11.00;43.20
32394;DHT22;18853;45.426;9.206;2023-02-28T06:28:54;11.00;43.40
32394;DHT22;18853;45.426;9.206;2023-02-28T06:31:21;10.90;43.90
32394;DHT22;18853;45.426;9.206;2023-02-28T06:33:47;10.90;43.20
32394;DHT22;18853;45.426;9.206;2023-02-28T06:36:14;10.90;43.30
32394;DHT22;18853;45.426;9.206;2023-02-28T06:38:42;10.90;43.40
32394;DHT22;18853;45.426;9.206;2023-02-28T06:41:08;10.90;43.10
32394;DHT22;18853;45.426;9.206;2023-02-28T06:43:37;10.90;43.20
32394;DHT22;18853;45.426;9.206;2023-02-28T06:46:05;10.90;43.10
32394;DHT22;18853;45.426;9.206;2023-02-28T06:48:31;10.90;43.30
32394;DHT22;18853;45.426;9.206;2023-02-28T06:51:17;10.90;44.20
32394;DHT22;18853;45.426;9.206;2023-02-28T06:53:43;11.00;43.50
32394;DHT22;18853;45.426;9.206;2023-02-28T06:56:14;10.90;43.60
32394;DHT22;18853;45.426;9.206;2023-02-28T06:58:40;10.90;43.90
32394;DHT22;18853;45.426;9.206;2023-02-28T07:01:07;11.00;43.70
32394;DHT22;18853;45.426;9.206;2023-02-28T07:03:34;11.60;51.80
32394;DHT22;18853;45.426;9.206;2023-02-28T07:06:00;12.30;51.20
32394;DHT22;18853;45.426;9.206;2023-02-28T07:08:26;12.80;49.50
32394;DHT22;18853;45.426;9.206;2023-02-28T07:10:55;13.20;48.10
32394;DHT22;18853;45.426;9.206;2023-02-28T07:13:21;13.50;46.90
32394;DHT22;18853;45.426;9.206;2023-02-28T07:16:01;13.80;45.80
32394;DHT22;18853;45.426;9.206;2023-02-28T07:18:27;14.00;44.60
32394;DHT22;18853;45.426;9.206;2023-02-28T07:20:53;14.20;43.80
32394;DHT22;18853;45.426;9.206;2023-02-28T07:23:19;14.30;41.70
32394;DHT22;18853;45.426;9.206;2023-02-28T07:25:44;13.90;38.80
32394;DHT22;18853;45.426;9.206;2023-02-28T07:28:11;13.40;38.90
32394;DHT22;18853;45.426;9.206;2023-02-28T07:30:37;13.10;39.70
32394;DHT22;18853;45.426;9.206;2023-02-28T07:33:03;12.90;40.30
32394;DHT22;18853;45.426;9.206;2023-02-28T07:35:29;12.60;40.20
32394;DHT22;18853;45.426;9.206;2023-02-28T07:37:56;12.40;40.20
32394;DHT22;18853;45.426;9.206;2023-02-28T07:40:22;12.20;40.40
32394;DHT22;18853;45.426;9.206;2023-02-28T07:42:48;12.00;40.70
32394;DHT22;18853;45.426;9.206;2023-02-28T07:45:13;11.90;41.00
32394;DHT22;18853;45.426;9.206;2023-02-28T07:47:41;11.90;41.50
32394;DHT22;18853;45.426;9.206;2023-02-28T07:50:10;11.90;41.80
32394;DHT22;18853;45.426;9.206;2023-02-28T07:52:37;12.00;41.90
32394;DHT22;18853;45.426;9.206;2023-02-28T07:55:04;11.90;41.90
32394;DHT22;18853;45.426;9.206;2023-02-28T07:57:30;12.00;42.00
32394;DHT22;18853;45.426;9.206;2023-02-28T07:59:56;11.90;42.00
32394;DHT22;18853;45.426;9.206;2023-02-28T08:02:21;11.90;41.40
32394;DHT22;18853;45.426;9.206;2023-02-28T08:04:47;11.80;41.30
32394;DHT22;18853;45.426;9.206;2023-02-28T08:07:14;11.60;41.30
32394;DHT22;18853;45.426;9.206;2023-02-28T08:09:40;11.50;41.60
32394;DHT22;18853;45.426;9.206;2023-02-28T08:12:10;11.40;41.50
32394;DHT22;18853;45.426;9.206;2023-02-28T08:14:36;11.40;41.60
32394;DHT22;18853;45.426;9.206;2023-02-28T08:17:02;11.40;41.90
32394;DHT22;18853;45.426;9.206;2023-02-28T08:19:28;11.50;42.10
32394;DHT22;18853;45.426;9.206;2023-02-28T08:21:55;11.50;42.00
32394;DHT22;18853;45.426;9.206;2023-02-28T08:24:21;11.50;41.80
32394;DHT22;18853;45.426;9.206;2023-02-28T08:26:46;11.50;41.70
32394;DHT22;18853;45.426;9.206;2023-02-28T08:29:12;11.40;41.50
32394;DHT22;18853;45.426;9.206;2023-02-28T08:31:38;11.50;41.70
32394;DHT22;18853;45.426;9.206;2023-02-28T08:34:08;11.50;41.90
32394;DHT22;18853;45.426;9.206;2023-02-28T08:36:34;11.60;41.80
32394;DHT22;18853;45.426;9.206;2023-02-28T08:39:00;11.60;41.70
32394;DHT22;18853;45.426;9.206;2023-02-28T08:41:26;11.70;41.60
32394;DHT22;18853;45.426;9.206;2023-02-28T08:43:52;11.70;41.50
32394;DHT22;18853;45.426;9.206;2023-02-28T08:46:18;11.70;41.70
32394;DHT22;18853;45.426;9.206;2023-02-28T08:48:44;11.80;41.90
32394;DHT22;18853;45.426;9.206;2023-02-28T08:51:14;11.80;42.00
32394;DHT22;18853;45.426;9.206;2023-02-28T08:53:41;11.80;41.80
32394;DHT22;18853;45.426;9.206;2023-02-28T08:56:10;11.80;41.80
32394;DHT22;18853;45.426;9.206;2023-02-28T08:58:36;11.80;40.90
32394;DHT22;18853;45.426;9.206;2023-02-28T09:01:11;11.70;40.70
32394;DHT22;18853;45.426;9.206;2023-02-28T09:03:37;11.70;40.70
32394;DHT22;18853;45.426;9.206;2023-02-28T09:06:03;11.60;41.00
32394;DHT22;18853;45.426;9.206;2023-02-28T09:08:30;11.60;41.60
32394;DHT22;18853;45.426;9.206;2023-02-28T09:10:57;11.70;41.40
32394;DHT22;18853;45.426;9.206;2023-02-28T09:13:24;11.80;41.20
32394;DHT22;18853;45.426;9.206;2023-02-28T09:15:50;11.80;41.30
32394;DHT22;18853;45.426;9.206;2023-02-28T09:18:16;11.90;41.60
32394;DHT22;18853;45.426;9.206;2023-02-28T09:20:42;11.90;41.70
32394;DHT22;18853;45.426;9.206;2023-02-28T09:23:09;12.00;41.50
32394;DHT22;18853;45.426;9.206;2023-02-28T09:25:35;12.00;40.90
32394;DHT22;18853;45.426;9.206;2023-02-28T09:28:02;12.00;40.70
32394;DHT22;18853;45.426;9.206;2023-02-28T09:30:28;12.00;40.90
32394;DHT22;18853;45.426;9.206;2023-02-28T09:32:54;12.00;41.00
32394;DHT22;18853;45.426;9.206;2023-02-28T09:35:21;12.00;41.00
32394;DHT22;18853;45.426;9.206;2023-02-28T09:37:49;12.10;41.00
32394;DHT22;18853;45.426;9.206;2023-02-28T09:40:15;12.10;40.80
32394;DHT22;18853;45.426;9.206;2023-02-28T09:42:46;12.20;40.50
32394;DHT22;18853;45.426;9.206;2023-02-28T09:47:47;12.10;40.20
32394;DHT22;18853;45.426;9.206;2023-02-28T09:52:51;12.00;40.70
32394;DHT22;18853;45.426;9.206;2023-02-28T09:55:39;12.00;40.40
32394;DHT22;18853;45.426;9.206;2023-02-28T09:58:18;12.10;40.30
32394;DHT22;18853;45.426;9.206;2023-02-28T10:00:47;12.20;40.50
32394;DHT22;18853;45.426;9.206;2023-02-28T10:03:39;12.20;40.70
32394;DHT22;18853;45.426;9.206;2023-02-28T10:06:07;12.20;40.40
32394;DHT22;18853;45.426;9.206;2023-02-28T10:08:38;12.10;40.20
32394;DHT22;18853;45.426;9.206;2023-02-28T10:11:10;12.00;40.40
32394;DHT22;18853;45.426;9.206;2023-02-28T10:16:16;12.20;40.90
32394;DHT22;18853;45.426;9.206;2023-02-28T10:18:48;12.20;40.60
32394;DHT22;18853;45.426;9.206;2023-02-28T10:21:31;12.30;40.40
32394;DHT22;18853;45.426;9.206;2023-02-28T10:24:04;12.40;40.30
32394;DHT22;18853;45.426;9.206;2023-02-28T10:26:32;12.40;40.00
32394;DHT22;18853;45.426;9.206;2023-02-28T10:28:58;12.50;40.10
32394;DHT22;18853;45.426;9.206;2023-02-28T10:31:24;12.50;39.70
32394;DHT22;18853;45.426;9.206;2023-02-28T10:33:51;12.50;39.50
32394;DHT22;18853;45.426;9.206;2023-02-28T10:36:19;12.60;39.40
32394;DHT22;18853;45.426;9.206;2023-02-28T10:38:46;12.60;39.30
32394;DHT22;18853;45.426;9.206;2023-02-28T10:41:27;12.50;39.40
32394;DHT22;18853;45.426;9.206;2023-02-28T10:44:12;12.60;39.50
32394;DHT22;18853;45.426;9.206;2023-02-28T10:46:39;12.60;39.50
32394;DHT22;18853;45.426;9.206;2023-02-28T10:49:12;12.50;39.50
32394;DHT22;18853;45.426;9.206;2023-02-28T10:51:39;12.60;39.50
32394;DHT22;18853;45.426;9.206;2023-02-28T10:54:06;12.70;39.70
32394;DHT22;18853;45.426;9.206;2023-02-28T10:56:39;12.70;39.80
32394;DHT22;18853;45.426;9.206;2023-02-28T11:01:44;12.50;38.90
32394;DHT22;18853;45.426;9.206;2023-02-28T11:04:18;12.50;38.90
32394;DHT22;18853;45.426;9.206;2023-02-28T11:06:45;12.60;39.00
32394;DHT22;18853;45.426;9.206;2023-02-28T11:09:28;12.60;39.90
32394;DHT22;18853;45.426;9.206;2023-02-28T11:11:57;12.50;40.00
32394;DHT22;18853;45.426;9.206;2023-02-28T11:14:28;12.60;40.20
32394;DHT22;18853;45.426;9.206;2023-02-28T11:17:03;12.60;40.10
32394;DHT22;18853;45.426;9.206;2023-02-28T11:19:40;12.70;40.60
32394;DHT22;18853;45.426;9.206;2023-02-28T11:22:09;12.70;40.50
32394;DHT22;18853;45.426;9.206;2023-02-28T11:24:49;12.80;40.30
32394;DHT22;18853;45.426;9.206;2023-02-28T11:29:51;13.00;39.50
32394;DHT22;18853;45.426;9.206;2023-02-28T11:32:24;13.00;39.60
32394;DHT22;18853;45.426;9.206;2023-02-28T11:35:15;13.00;39.10
32394;DHT22;18853;45.426;9.206;2023-02-28T11:37:42;13.10;38.90
32394;DHT22;18853;45.426;9.206;2023-02-28T11:40:37;13.00;39.70
32394;DHT22;18853;45.426;9.206;2023-02-28T11:45:55;13.00;38.70
32394;DHT22;18853;45.426;9.206;2023-02-28T11:48:27;13.00;39.00
32394;DHT22;18853;45.426;9.206;2023-02-28T11:56:48;13.10;37.70
32394;DHT22;18853;45.426;9.206;2023-02-28T11:59:36;13.20;38.50
32394;DHT22;18853;45.426;9.206;2023-02-28T12:02:59;13.30;37.80
32394;DHT22;18853;45.426;9.206;2023-02-28T12:05:36;13.30;38.20
32394;DHT22;18853;45.426;9.206;2023-02-28T12:13:48;13.70;38.90
32394;DHT22;18853;45.426;9.206;2023-02-28T12:27:39;13.70;38.50
32394;DHT22;18853;45.426;9.206;2023-02-28T12:30:27;13.80;38.20
32394;DHT22;18853;45.426;9.206;2023-02-28T12:33:05;13.90;37.60
32394;DHT22;18853;45.426;9.206;2023-02-28T12:35:51;13.90;37.50
32394;DHT22;18853;45.426;9.206;2023-02-28T12:41:00;13.90;38.60
32394;DHT22;18853;45.426;9.206;2023-02-28T12:43:33;14.00;38.10
32394;DHT22;18853;45.426;9.206;2023-02-28T12:46:06;14.10;37.80
32394;DHT22;18853;45.426;9.206;2023-02-28T12:48:46;14.20;37.60
32394;DHT22;18853;45.426;9.206;2023-02-28T12:51:15;14.30;37.20
32394;DHT22;18853;45.426;9.206;2023-02-28T12:54:04;14.40;37.30
32394;DHT22;18853;45.426;9.206;2023-02-28T13:10:05;15.20;36.00
32394;DHT22;18853;45.426;9.206;2023-02-28T13:12:33;15.10;36.40
32394;DHT22;18853;45.426;9.206;2023-02-28T13:15:16;15.10;35.80
32394;DHT22;18853;45.426;9.206;2023-02-28T13:17:49;15.20;35.40
32394;DHT22;18853;45.426;9.206;2023-02-28T13:20:36;15.00;35.70
32394;DHT22;18853;45.426;9.206;2023-02-28T13:23:02;15.00;36.00
32394;DHT22;18853;45.426;9.206;2023-02-28T13:28:01;14.90;36.70
32394;DHT22;18853;45.426;9.206;2023-02-28T13:38:44;15.20;36.60
32394;DHT22;18853;45.426;9.206;2023-02-28T13:44:24;15.30;36.40
32394;DHT22;18853;45.426;9.206;2023-02-28T13:52:15;15.40;36.30
32394;DHT22;18853;45.426;9.206;2023-02-28T14:06:31;15.70;35.20
32394;DHT22;18853;45.426;9.206;2023-02-28T14:09:02;15.70;34.50
32394;DHT22;18853;45.426;9.206;2023-02-28T14:11:38;15.70;35.20
32394;DHT22;18853;45.426;9.206;2023-02-28T14:14:05;15.70;34.90
32394;DHT22;18853;45.426;9.206;2023-02-28T14:16:41;15.70;35.70
32394;DHT22;18853;45.426;9.206;2023-02-28T14:19:16;15.80;35.60
32394;DHT22;18853;45.426;9.206;2023-02-28T14:30:37;16.30;34.80
32394;DHT22;18853;45.426;9.206;2023-02-28T14:35:50;16.30;34.20
32394;DHT22;18853;45.426;9.206;2023-02-28T14:38:20;16.30;34.60
32394;DHT22;18853;45.426;9.206;2023-02-28T14:40:49;16.30;34.50
32394;DHT22;18853;45.426;9.206;2023-02-28T14:43:22;16.40;34.30
32394;DHT22;18853;45.426;9.206;2023-02-28T14:45:57;16.40;34.10
32394;DHT22;18853;45.426;9.206;2023-02-28T14:48:24;16.40;34.30
32394;DHT22;18853;45.426;9.206;2023-02-28T14:50:53;16.50;34.40
32394;DHT22;18853;45.426;9.206;2023-02-28T14:53:21;16.70;34.20
32394;DHT22;18853;45.426;9.206;2023-02-28T14:55:49;16.70;33.60
32394;DHT22;18853;45.426;9.206;2023-02-28T14:58:32;16.80;33.50
32394;DHT22;18853;45.426;9.206;2023-02-28T15:01:00;16.90;33.20
32394;DHT22;18853;45.426;9.206;2023-02-28T15:03:36;16.90;33.60
32394;DHT22;18853;45.426;9.206;2023-02-28T15:06:12;16.80;33.10
32394;DHT22;18853;45.426;9.206;2023-02-28T15:08:38;16.80;33.60
32394;DHT22;18853;45.426;9.206;2023-02-28T15:11:16;16.80;33.60
32394;DHT22;18853;45.426;9.206;2023-02-28T15:13:46;16.70;33.70
32394;DHT22;18853;45.426;9.206;2023-02-28T15:21:16;16.30;34.40
32394;DHT22;18853;45.426;9.206;2023-02-28T15:23:54;16.20;34.60
32394;DHT22;18853;45.426;9.206;2023-02-28T15:26:23;16.10;34.90
32394;DHT22;18853;45.426;9.206;2023-02-28T15:29:00;16.00;34.90
32394;DHT22;18853;45.426;9.206;2023-02-28T15:31:32;16.00;34.70
32394;DHT22;18853;45.426;9.206;2023-02-28T15:34:03;15.80;34.40
32394;DHT22;18853;45.426;9.206;2023-02-28T15:36:31;16.00;35.00
32394;DHT22;18853;45.426;9.206;2023-02-28T15:38:59;16.10;34.80
32394;DHT22;18853;45.426;9.206;2023-02-28T15:41:29;16.20;34.90
32394;DHT22;18853;45.426;9.206;2023-02-28T15:44:14;16.10;34.90
32394;DHT22;18853;45.426;9.206;2023-02-28T15:47:06;16.20;34.50
32394;DHT22;18853;45.426;9.206;2023-02-28T15:49:56;16.10;34.60
32394;DHT22;18853;45.426;9.206;2023-02-28T15:52:38;16.30;34.50
32394;DHT22;18853;45.426;9.206;2023-02-28T15:55:21;16.30;34.20
32394;DHT22;18853;45.426;9.206;2023-02-28T15:57:56;16.30;34.50
32394;DHT22;18853;45.426;9.206;2023-02-28T16:00:25;16.30;34.70
32394;DHT22;18853;45.426;9.206;2023-02-28T16:02:52;16.30;34.80
32394;DHT22;18853;45.426;9.206;2023-02-28T16:05:30;16.30;34.50
32394;DHT22;18853;45.426;9.206;2023-02-28T16:08:11;16.40;34.70
32394;DHT22;18853;45.426;9.206;2023-02-28T16:10:38;16.40;35.10
32394;DHT22;18853;45.426;9.206;2023-02-28T16:13:04;16.20;35.50
32394;DHT22;18853;45.426;9.206;2023-02-28T16:15:35;16.10;35.50
32394;DHT22;18853;45.426;9.206;2023-02-28T16:18:10;16.00;35.40
32394;DHT22;18853;45.426;9.206;2023-02-28T16:20:36;15.90;35.30
32394;DHT22;18853;45.426;9.206;2023-02-28T16:23:02;15.80;35.60
32394;DHT22;18853;45.426;9.206;2023-02-28T16:25:40;15.70;36.00
32394;DHT22;18853;45.426;9.206;2023-02-28T16:28:25;15.70;36.00
32394;DHT22;18853;45.426;9.206;2023-02-28T16:30:56;15.70;36.20
32394;DHT22;18853;45.426;9.206;2023-02-28T16:33:22;15.50;36.40
32394;DHT22;18853;45.426;9.206;2023-02-28T16:35:49;15.50;36.60
32394;DHT22;18853;45.426;9.206;2023-02-28T16:38:14;15.50;36.90
32394;DHT22;18853;45.426;9.206;2023-02-28T16:40:40;15.40;36.90
32394;DHT22;18853;45.426;9.206;2023-02-28T16:43:15;15.40;37.00
32394;DHT22;18853;45.426;9.206;2023-02-28T16:45:42;15.30;37.00
32394;DHT22;18853;45.426;9.206;2023-02-28T16:48:13;15.30;37.20
32394;DHT22;18853;45.426;9.206;2023-02-28T16:50:39;15.30;37.20
32394;DHT22;18853;45.426;9.206;2023-02-28T16:53:05;15.20;37.50
32394;DHT22;18853;45.426;9.206;2023-02-28T16:55:30;15.20;37.60
32394;DHT22;18853;45.426;9.206;2023-02-28T16:57:58;15.20;37.80
32394;DHT22;18853;45.426;9.206;2023-02-28T17:00:25;15.20;37.90
32394;DHT22;18853;45.426;9.206;2023-02-28T17:02:51;15.10;37.90
32394;DHT22;18853;45.426;9.206;2023-02-28T17:05:17;15.10;38.10
32394;DHT22;18853;45.426;9.206;2023-02-28T17:07:44;15.00;38.00
32394;DHT22;18853;45.426;9.206;2023-02-28T17:10:30;15.00;38.20
32394;DHT22;18853;45.426;9.206;2023-02-28T17:12:56;15.00;38.20
32394;DHT22;18853;45.426;9.206;2023-02-28T17:15:21;14.90;38.40
32394;DHT22;18853;45.426;9.206;2023-02-28T17:17:47;14.90;38.50
32394;DHT22;18853;45.426;9.206;2023-02-28T17:20:19;14.80;38.70
32394;DHT22;18853;45.426;9.206;2023-02-28T17:22:48;14.90;38.60
32394;DHT22;18853;45.426;9.206;2023-02-28T17:25:14;14.80;38.50
32394;DHT22;18853;45.426;9.206;2023-02-28T17:27:40;14.90;38.50
32394;DHT22;18853;45.426;9.206;2023-02-28T17:32:41;14.90;38.50
32394;DHT22;18853;45.426;9.206;2023-02-28T17:35:07;14.80;38.60
32394;DHT22;18853;45.426;9.206;2023-02-28T17:37:33;14.80;38.60
32394;DHT22;18853;45.426;9.206;2023-02-28T17:39:59;14.80;38.50
32394;DHT22;18853;45.426;9.206;2023-02-28T17:42:24;14.80;38.60
32394;DHT22;18853;45.426;9.206;2023-02-28T17:44:50;14.80;38.50
32394;DHT22;18853;45.426;9.206;2023-02-28T17:47:16;14.80;38.60
32394;DHT22;18853;45.426;9.206;2023-02-28T17:49:41;14.80;38.70
32394;DHT22;18853;45.426;9.206;2023-02-28T17:52:08;14.70;38.80
32394;DHT22;18853;45.426;9.206;2023-02-28T17:54:33;14.70;38.90
32394;DHT22;18853;45.426;9.206;2023-02-28T17:56:59;14.70;39.00
32394;DHT22;18853;45.426;9.206;2023-02-28T17:59:25;14.60;39.00
32394;DHT22;18853;45.426;9.206;2023-02-28T18:02:01;14.60;39.10
32394;DHT22;18853;45.426;9.206;2023-02-28T18:04:27;14.60;39.30
32394;DHT22;18853;45.426;9.206;2023-02-28T18:06:53;14.60;39.30
32394;DHT22;18853;45.426;9.206;2023-02-28T18:09:21;14.60;39.30
32394;DHT22;18853;45.426;9.206;2023-02-28T18:11:47;14.70;39.30
32394;DHT22;18853;45.426;9.206;2023-02-28T18:14:20;14.60;39.30
32394;DHT22;18853;45.426;9.206;2023-02-28T18:16:46;14.60;39.30
32394;DHT22;18853;45.426;9.206;2023-02-28T18:19:13;14.70;39.30
32394;DHT22;18853;45.426;9.206;2023-02-28T18:21:46;14.60;39.50
32394;DHT22;18853;45.426;9.206;2023-02-28T18:24:13;14.60;39.40